This is the latest recevied weather packets stored in our database for station/object KF7ROW. If no packets are shown the sender has not sent any weather packets the latest 10 day(s).
| Time | Temp. | Humidity | Pressure | Rain* | Wind** | Luminosity | Snow |
|---|---|---|---|---|---|---|---|
| 1778085272 | 12.78° C | 85% | 1026.1 hPa | 0 mm | - | 96 W/m² | - |
| 1778084967 | 12.78° C | 85% | 1025.9 hPa | 0 mm | - | 102 W/m² | - |
| 1778084664 | 12.78° C | 85% | 1026.1 hPa | 0 mm | - | 100 W/m² | - |
| 1778084356 | 12.78° C | 85% | 1025.8 hPa | 0 mm | - | 99 W/m² | - |
| 1778084054 | 12.78° C | 86% | 1025.8 hPa | 0 mm | - | 95 W/m² | - |
| 1778083746 | 12.78° C | 86% | 1025.9 hPa | 0 mm | - | 86 W/m² | - |
| 1778083442 | 12.78° C | 86% | 1025.5 hPa | 0 mm | - | 90 W/m² | - |
| 1778083141 | 12.78° C | 86% | 1025.6 hPa | 0 mm | - | 85 W/m² | - |
| 1778082837 | 12.78° C | 85% | 1025.4 hPa | 0 mm | - | 81 W/m² | - |
| 1778081714 | 12.78° C | 87% | 1025.3 hPa | 0 mm | - | 72 W/m² | - |
| 1778081411 | 12.22° C | 87% | 1025.4 hPa | 0 mm | - | 66 W/m² | - |
| 1778081108 | 12.78° C | 88% | 1025.3 hPa | 0 mm | - | 70 W/m² | - |
| 1778080807 | 12.78° C | 88% | 1025.1 hPa | 0 mm | - | 72 W/m² | - |
| 1778080504 | 12.78° C | 88% | 1025.2 hPa | 0 mm | - | 65 W/m² | - |
| 1778080201 | 12.22° C | 88% | 1025.3 hPa | 0 mm | - | 59 W/m² | - |
| 1778079897 | 12.22° C | 88% | 1025.3 hPa | 0 mm | - | 46 W/m² | - |
| 1778079594 | 12.22° C | 89% | 1025.4 hPa | 0 mm | - | 42 W/m² | - |
| 1778079290 | 12.22° C | 89% | 1025.5 hPa | 0 mm | - | 33 W/m² | - |
| 1778078988 | 12.22° C | 89% | 1025.7 hPa | 0 mm | - | 31 W/m² | - |
| 1778078684 | 12.22° C | 89% | 1025.4 hPa | 0 mm | - | 31 W/m² | - |
| 1778078383 | 12.22° C | 90% | 1025.5 hPa | 0 mm | - | 29 W/m² | - |
| 1778078079 | 12.22° C | 90% | 1025.6 hPa | 0 mm | - | 25 W/m² | - |
| 1778077778 | 12.22° C | 90% | 1025.7 hPa | 0 mm | - | 20 W/m² | - |
| 1778077475 | 12.22° C | 89% | 1025.6 hPa | 0 mm | - | 17 W/m² | - |
| 1778077173 | 12.22° C | 89% | 1025.6 hPa | 0 mm | - | 18 W/m² | - |
* Rain latest hour (hover to see other rain measurements)
** Current wind speed in m/s (hover to see current wind gust speed)